Time;durP1;ratioP1;P1;durP2;ratioP2;P2;SDS_P1;SDS_P2;PMS_P1;PMS_P2;Temp;Humidity;BMP_temperature;BMP_pressure;BME280_temperature;BME280_humidity;BME280_pressure;Samples;Min_cycle;Max_cycle;Signal;HPM_P1;HPM_P2
2021/05/13 00:01:23;;;;;;;1.95;0.50;;;;;;;;;;4993733;28;20030;-58
2021/05/13 00:03:50;;;;;;;0.35;0.22;;;;;;;;;;4993568;28;20033;-58
2021/05/13 00:06:16;;;;;;;1.20;0.50;;;;;;;;;;4993135;28;20019;-58
2021/05/13 00:08:43;;;;;;;0.80;0.50;;;;;;;;;;4990124;28;20512;-58
2021/05/13 00:11:10;;;;;;;0.57;0.30;;;;;;;;;;4991529;28;20037;-58
2021/05/13 00:13:37;;;;;;;0.65;0.40;;;;;;;;;;4993043;28;20125;-58
2021/05/13 00:16:04;;;;;;;0.75;0.40;;;;;;;;;;4993096;28;20022;-58
2021/05/13 00:18:31;;;;;;;1.25;0.52;;;;;;;;;;4992844;28;20450;-58
2021/05/13 00:20:57;;;;;;;1.17;0.60;;;;;;;;;;4989213;28;20030;-59
2021/05/13 00:23:24;;;;;;;0.45;0.30;;;;;;;;;;4984087;28;20097;-58
2021/05/13 00:25:51;;;;;;;0.77;0.30;;;;;;;;;;4992930;28;20025;-58
2021/05/13 00:28:18;;;;;;;0.95;0.30;;;;;;;;;;4991734;28;20037;-58
2021/05/13 00:30:45;;;;;;;1.73;0.43;;;;;;;;;;4991686;28;20370;-58
2021/05/13 00:33:11;;;;;;;0.55;0.30;;;;;;;;;;4991168;28;20050;-59
2021/05/13 00:35:37;;;;;;;1.40;0.40;;;;;;;;;;4993066;28;20089;-59
2021/05/13 00:38:04;;;;;;;1.45;0.40;;;;;;;;;;4990580;28;20382;-59
2021/05/13 00:40:30;;;;;;;2.10;0.50;;;;;;;;;;4991778;28;20030;-58
2021/05/13 00:42:57;;;;;;;1.38;0.68;;;;;;;;;;4992103;28;20511;-58
2021/05/13 00:45:23;;;;;;;1.00;0.60;;;;;;;;;;4986915;28;20036;-59
2021/05/13 00:50:22;;;;;;;3.25;0.50;;;;;;;;;;4993007;28;20409;-58
2021/05/13 00:52:49;;;;;;;2.47;0.68;;;;;;;;;;4990998;28;20054;-58
2021/05/13 00:55:16;;;;;;;1.35;0.70;;;;;;;;;;4988776;28;20454;-58
2021/05/13 00:57:46;;;;;;;1.02;0.50;;;;;;;;;;4990660;28;20037;-58
2021/05/13 01:00:34;;;;;;;1.08;0.65;;;;;;;;;;4985975;28;20517;-58
2021/05/13 01:03:01;;;;;;;1.45;0.65;;;;;;;;;;4992426;28;20121;-57
2021/05/13 01:05:28;;;;;;;1.27;0.90;;;;;;;;;;4991219;28;20172;-58
2021/05/13 01:07:57;;;;;;;3.47;0.90;;;;;;;;;;4990245;28;20027;-58
2021/05/13 01:10:24;;;;;;;1.02;0.65;;;;;;;;;;4976245;28;20069;-58
2021/05/13 01:12:50;;;;;;;1.35;0.80;;;;;;;;;;4991016;28;20160;-58
2021/05/13 01:15:30;;;;;;;2.50;0.90;;;;;;;;;;4991963;28;20022;-58
2021/05/13 01:18:07;;;;;;;2.42;0.90;;;;;;;;;;4991850;28;20081;-57
2021/05/13 01:20:34;;;;;;;3.67;1.33;;;;;;;;;;4991478;28;20042;-58
2021/05/13 01:23:00;;;;;;;2.40;1.27;;;;;;;;;;4991975;28;20374;-57
2021/05/13 01:25:27;;;;;;;2.63;1.10;;;;;;;;;;4990230;28;20035;-59
2021/05/13 01:27:58;;;;;;;2.00;1.02;;;;;;;;;;4992111;28;20486;-60
2021/05/13 01:30:24;;;;;;;5.75;0.88;;;;;;;;;;4990948;28;20161;-59
2021/05/13 01:32:51;;;;;;;1.73;0.60;;;;;;;;;;4993697;28;20015;-59
2021/05/13 01:35:17;;;;;;;1.35;0.98;;;;;;;;;;4995976;28;20030;-59
2021/05/13 01:37:44;;;;;;;1.40;0.80;;;;;;;;;;4995481;28;20038;-57
2021/05/13 01:40:10;;;;;;;1.65;0.90;;;;;;;;;;4995692;28;20406;-58
2021/05/13 01:42:36;;;;;;;2.28;0.60;;;;;;;;;;4994148;28;20077;-59
2021/05/13 01:45:03;;;;;;;1.50;0.70;;;;;;;;;;4994996;28;20029;-59
2021/05/13 01:47:35;;;;;;;1.85;0.70;;;;;;;;;;4993110;28;20033;-58
2021/05/13 01:50:01;;;;;;;1.17;0.75;;;;;;;;;;4995493;28;20117;-59
2021/05/13 01:52:27;;;;;;;1.90;1.05;;;;;;;;;;4992344;28;20042;-58
2021/05/13 01:54:53;;;;;;;1.35;0.70;;;;;;;;;;4995399;28;20200;-58
2021/05/13 01:57:19;;;;;;;1.52;0.80;;;;;;;;;;4995461;28;20169;-58
2021/05/13 01:59:46;;;;;;;3.95;0.98;;;;;;;;;;4993483;28;20061;-59
2021/05/13 02:02:14;;;;;;;1.05;0.60;;;;;;;;;;4995342;28;20030;-59
2021/05/13 02:04:40;;;;;;;2.65;0.68;;;;;;;;;;4995286;28;20027;-59
2021/05/13 02:07:06;;;;;;;1.17;0.70;;;;;;;;;;4989525;28;20026;-57
2021/05/13 02:09:33;;;;;;;1.92;0.90;;;;;;;;;;4992746;28;20131;-58
2021/05/13 02:11:59;;;;;;;1.38;0.60;;;;;;;;;;4993663;28;20027;-58
2021/05/13 02:14:25;;;;;;;2.05;0.77;;;;;;;;;;4994257;28;20014;-58
2021/05/13 02:16:51;;;;;;;2.47;0.80;;;;;;;;;;4992827;28;21752;-58
2021/05/13 02:19:17;;;;;;;1.40;0.70;;;;;;;;;;4992032;28;20113;-58
2021/05/13 02:21:44;;;;;;;1.92;0.73;;;;;;;;;;4994804;28;20032;-58
2021/05/13 02:24:10;;;;;;;1.38;0.70;;;;;;;;;;4995091;28;20026;-59
2021/05/13 02:26:36;;;;;;;0.60;0.60;;;;;;;;;;4995166;28;20027;-58
2021/05/13 02:29:02;;;;;;;1.65;0.70;;;;;;;;;;4994672;28;20026;-58
2021/05/13 02:31:28;;;;;;;2.08;0.80;;;;;;;;;;4994958;28;20149;-58
2021/05/13 02:33:54;;;;;;;3.22;1.05;;;;;;;;;;4993536;28;20081;-57
2021/05/13 02:36:21;;;;;;;1.70;0.90;;;;;;;;;;4994929;28;20030;-58
2021/05/13 02:38:47;;;;;;;1.90;0.85;;;;;;;;;;4994598;28;20110;-58
2021/05/13 02:41:13;;;;;;;3.10;1.00;;;;;;;;;;4992815;28;20030;-58
2021/05/13 02:43:39;;;;;;;3.60;0.88;;;;;;;;;;4994098;28;20031;-58
2021/05/13 02:46:05;;;;;;;2.67;1.40;;;;;;;;;;4994936;28;20026;-58
2021/05/13 02:48:32;;;;;;;1.40;1.00;;;;;;;;;;4994412;28;20026;-59
2021/05/13 02:50:58;;;;;;;1.80;0.70;;;;;;;;;;4995002;28;20022;-58
2021/05/13 02:53:24;;;;;;;0.77;0.70;;;;;;;;;;4992994;28;20060;-59
2021/05/13 02:55:50;;;;;;;1.55;1.13;;;;;;;;;;4988756;28;20054;-57
2021/05/13 02:58:16;;;;;;;1.60;0.90;;;;;;;;;;4985872;28;20470;-58
2021/05/13 03:03:14;;;;;;;1.15;0.70;;;;;;;;;;4994463;28;20037;-58
2021/05/13 03:05:41;;;;;;;1.10;0.70;;;;;;;;;;4995152;28;20109;-59
2021/05/13 03:08:09;;;;;;;2.28;0.95;;;;;;;;;;4994515;28;20031;-59
2021/05/13 03:13:10;;;;;;;1.85;0.93;;;;;;;;;;4994648;28;20122;-59
2021/05/13 03:15:36;;;;;;;4.47;0.90;;;;;;;;;;4994309;28;20113;-59
2021/05/13 03:18:03;;;;;;;4.38;1.23;;;;;;;;;;4989810;28;20031;-58
2021/05/13 03:20:38;;;;;;;3.65;1.10;;;;;;;;;;4989834;28;20031;-58
2021/05/13 03:23:06;;;;;;;1.58;0.82;;;;;;;;;;4988702;28;20378;-58
2021/05/13 03:25:35;;;;;;;2.15;1.40;;;;;;;;;;4975815;28;20101;-59
2021/05/13 03:28:08;;;;;;;3.65;1.35;;;;;;;;;;4992267;28;20495;-58
2021/05/13 03:30:35;;;;;;;3.55;0.90;;;;;;;;;;4994282;28;20173;-59
2021/05/13 03:33:01;;;;;;;3.00;0.93;;;;;;;;;;4986733;28;20031;-59
2021/05/13 03:35:28;;;;;;;2.70;0.98;;;;;;;;;;4986040;28;20049;-58
2021/05/13 03:37:54;;;;;;;3.70;1.00;;;;;;;;;;4993041;28;20445;-58
2021/05/13 03:40:20;;;;;;;3.58;0.70;;;;;;;;;;4994011;28;20026;-58
2021/05/13 03:42:47;;;;;;;3.15;1.17;;;;;;;;;;4990583;28;20126;-57
2021/05/13 03:45:13;;;;;;;2.17;1.10;;;;;;;;;;4993371;28;20030;-57
2021/05/13 03:47:39;;;;;;;1.30;0.75;;;;;;;;;;4988565;28;20026;-58
2021/05/13 03:50:06;;;;;;;2.78;1.08;;;;;;;;;;4988446;28;20554;-59
2021/05/13 03:52:32;;;;;;;1.67;0.82;;;;;;;;;;4992906;28;20023;-58
2021/05/13 03:54:58;;;;;;;2.38;0.90;;;;;;;;;;4988276;28;20112;-57
2021/05/13 03:57:24;;;;;;;1.55;1.00;;;;;;;;;;4985240;28;20038;-57
2021/05/13 03:59:54;;;;;;;2.30;0.82;;;;;;;;;;5002920;28;20505;-58
2021/05/13 04:02:35;;;;;;;2.17;0.98;;;;;;;;;;4993316;28;20018;-58
2021/05/13 04:05:01;;;;;;;2.33;1.00;;;;;;;;;;4988974;28;20050;-58
2021/05/13 04:07:29;;;;;;;2.45;0.80;;;;;;;;;;4985176;28;20038;-58
2021/05/13 04:09:55;;;;;;;1.65;0.88;;;;;;;;;;4992496;28;20481;-58
2021/05/13 04:12:21;;;;;;;2.58;0.88;;;;;;;;;;4993540;28;20501;-58
2021/05/13 04:14:48;;;;;;;1.65;1.00;;;;;;;;;;4990749;28;20026;-59
2021/05/13 04:17:14;;;;;;;1.90;0.82;;;;;;;;;;4986127;28;20025;-58
2021/05/13 04:19:40;;;;;;;2.53;1.10;;;;;;;;;;4992736;28;20049;-59
2021/05/13 04:22:07;;;;;;;1.38;0.80;;;;;;;;;;4990625;28;20030;-58
2021/05/13 04:24:33;;;;;;;2.03;1.00;;;;;;;;;;4991014;28;20374;-59
2021/05/13 04:26:59;;;;;;;2.58;0.93;;;;;;;;;;4989090;28;20023;-58
2021/05/13 04:29:26;;;;;;;2.58;1.00;;;;;;;;;;4991334;28;20057;-58
2021/05/13 04:31:52;;;;;;;1.85;0.88;;;;;;;;;;4990907;28;20516;-58
2021/05/13 04:34:18;;;;;;;1.85;0.90;;;;;;;;;;4992834;28;20121;-58
2021/05/13 04:36:44;;;;;;;1.73;1.08;;;;;;;;;;4991271;28;20109;-59
2021/05/13 04:39:11;;;;;;;1.42;0.90;;;;;;;;;;4990978;28;20149;-58
2021/05/13 04:41:37;;;;;;;1.48;1.00;;;;;;;;;;4992266;28;20073;-57
2021/05/13 04:44:05;;;;;;;2.65;1.10;;;;;;;;;;4992404;28;20083;-57
2021/05/13 04:46:32;;;;;;;2.33;1.00;;;;;;;;;;4983337;28;20030;-58
2021/05/13 04:51:29;;;;;;;3.22;1.30;;;;;;;;;;4992436;28;20034;-58
2021/05/13 04:53:55;;;;;;;2.85;1.50;;;;;;;;;;4991346;28;20308;-58
2021/05/13 04:56:22;;;;;;;2.42;1.23;;;;;;;;;;4987538;28;20054;-59
2021/05/13 04:58:49;;;;;;;2.30;0.95;;;;;;;;;;4981220;28;20561;-58
2021/05/13 05:01:15;;;;;;;2.00;1.05;;;;;;;;;;4991576;28;20023;-58
2021/05/13 05:03:41;;;;;;;4.90;1.35;;;;;;;;;;4987077;28;20038;-58
2021/05/13 05:06:10;;;;;;;4.00;1.38;;;;;;;;;;4983717;28;20029;-59
2021/05/13 05:08:36;;;;;;;2.67;1.13;;;;;;;;;;4995153;28;20034;-59
2021/05/13 05:11:06;;;;;;;1.92;1.10;;;;;;;;;;4995824;28;20405;-58
2021/05/13 05:13:32;;;;;;;2.45;1.27;;;;;;;;;;4996535;28;20038;-59
2021/05/13 05:15:59;;;;;;;6.35;1.45;;;;;;;;;;4995103;28;20026;-58
2021/05/13 05:18:25;;;;;;;6.55;1.80;;;;;;;;;;4994925;28;20043;-57
2021/05/13 05:20:53;;;;;;;3.15;1.48;;;;;;;;;;4995410;28;20026;-58
2021/05/13 05:23:20;;;;;;;3.30;1.35;;;;;;;;;;4996100;28;20046;-58
2021/05/13 05:25:46;;;;;;;3.10;1.40;;;;;;;;;;4994789;28;20030;-58
2021/05/13 05:28:13;;;;;;;2.72;1.58;;;;;;;;;;4996121;28;20030;-58
2021/05/13 05:30:40;;;;;;;2.95;1.40;;;;;;;;;;4994508;28;20031;-58
2021/05/13 05:33:08;;;;;;;3.65;1.50;;;;;;;;;;4994759;28;20022;-59
2021/05/13 05:35:34;;;;;;;4.07;1.30;;;;;;;;;;4994052;28;20026;-59
2021/05/13 05:38:01;;;;;;;4.28;1.75;;;;;;;;;;4996354;28;20027;-58
2021/05/13 05:40:27;;;;;;;7.40;1.88;;;;;;;;;;4995676;28;20034;-57
2021/05/13 05:42:53;;;;;;;3.97;1.35;;;;;;;;;;4994749;28;20050;-58
2021/05/13 05:45:20;;;;;;;2.30;1.75;;;;;;;;;;4996110;28;20361;-57
2021/05/13 05:47:47;;;;;;;3.40;2.00;;;;;;;;;;4995972;28;20397;-58
2021/05/13 05:50:14;;;;;;;3.38;1.73;;;;;;;;;;4995986;28;20030;-58
2021/05/13 05:52:41;;;;;;;4.53;2.47;;;;;;;;;;4995666;28;20030;-59
2021/05/13 05:55:08;;;;;;;2.70;2.00;;;;;;;;;;4996068;28;20030;-59
2021/05/13 05:57:34;;;;;;;3.83;2.20;;;;;;;;;;4994657;28;20030;-59
2021/05/13 06:00:01;;;;;;;3.58;2.47;;;;;;;;;;4996265;28;20041;-58
2021/05/13 06:02:28;;;;;;;3.72;2.00;;;;;;;;;;4994432;28;20064;-59
2021/05/13 06:04:54;;;;;;;3.38;2.10;;;;;;;;;;4993636;28;20559;-59
2021/05/13 06:07:22;;;;;;;3.15;2.20;;;;;;;;;;4994570;28;20026;-59
2021/05/13 06:09:48;;;;;;;5.20;2.50;;;;;;;;;;4995455;28;20037;-57
2021/05/13 06:12:15;;;;;;;4.40;2.60;;;;;;;;;;4994163;28;20022;-57
2021/05/13 06:14:41;;;;;;;7.35;2.33;;;;;;;;;;4995213;28;20117;-57
2021/05/13 06:17:07;;;;;;;4.20;2.20;;;;;;;;;;4994192;28;20027;-58
2021/05/13 06:19:33;;;;;;;2.78;2.05;;;;;;;;;;4995032;28;20042;-58
2021/05/13 06:22:00;;;;;;;3.65;2.35;;;;;;;;;;4995229;28;20019;-58
2021/05/13 06:24:26;;;;;;;2.78;2.00;;;;;;;;;;4995799;28;20022;-58
2021/05/13 06:26:56;;;;;;;3.47;1.92;;;;;;;;;;4993007;28;20066;-57
2021/05/13 06:29:22;;;;;;;4.75;2.22;;;;;;;;;;4995013;28;20022;-59
2021/05/13 06:31:49;;;;;;;6.03;2.67;;;;;;;;;;4993318;28;20113;-58
2021/05/13 06:34:15;;;;;;;3.40;2.17;;;;;;;;;;4995261;28;20019;-58
2021/05/13 06:36:42;;;;;;;4.68;2.67;;;;;;;;;;4994668;28;20084;-58
2021/05/13 06:39:08;;;;;;;3.58;2.15;;;;;;;;;;4994879;28;20022;-57
2021/05/13 06:41:35;;;;;;;5.63;3.47;;;;;;;;;;4992724;28;20068;-58
2021/05/13 06:44:01;;;;;;;5.30;2.58;;;;;;;;;;4995236;28;20097;-58
2021/05/13 06:46:27;;;;;;;5.53;3.10;;;;;;;;;;4994762;28;20100;-58
2021/05/13 06:48:53;;;;;;;7.53;2.80;;;;;;;;;;4993127;28;20105;-60
2021/05/13 06:51:20;;;;;;;4.75;2.45;;;;;;;;;;4994293;28;20163;-57
2021/05/13 06:53:46;;;;;;;5.13;2.60;;;;;;;;;;4993608;28;20123;-58
2021/05/13 06:56:12;;;;;;;4.50;2.13;;;;;;;;;;4985991;28;20053;-60
2021/05/13 06:58:39;;;;;;;3.38;2.13;;;;;;;;;;4981112;28;20449;-59
2021/05/13 07:01:05;;;;;;;5.15;2.60;;;;;;;;;;4987018;28;20022;-59
2021/05/13 07:03:31;;;;;;;6.60;2.40;;;;;;;;;;4986210;28;20442;-59
2021/05/13 07:05:57;;;;;;;4.40;2.65;;;;;;;;;;4989870;28;20021;-58
2021/05/13 07:08:24;;;;;;;7.70;2.83;;;;;;;;;;4976537;28;20554;-57
2021/05/13 07:10:50;;;;;;;4.03;2.20;;;;;;;;;;4980954;28;20038;-59
2021/05/13 07:13:16;;;;;;;4.97;2.10;;;;;;;;;;4982353;28;20023;-59
2021/05/13 07:15:42;;;;;;;3.95;2.03;;;;;;;;;;4993490;28;20026;-59
2021/05/13 07:18:12;;;;;;;4.07;2.10;;;;;;;;;;4970825;28;20048;-58
2021/05/13 07:20:39;;;;;;;3.22;2.10;;;;;;;;;;4982453;28;20030;-58
2021/05/13 07:23:05;;;;;;;7.63;2.20;;;;;;;;;;4979869;28;20173;-58
2021/05/13 07:25:32;;;;;;;4.45;1.85;;;;;;;;;;4977708;28;20474;-59
2021/05/13 07:27:59;;;;;;;4.95;2.28;;;;;;;;;;4969519;28;20026;-58
2021/05/13 07:30:26;;;;;;;3.97;1.65;;;;;;;;;;4982996;28;20022;-58
2021/05/13 07:32:52;;;;;;;4.93;2.13;;;;;;;;;;4985945;28;20043;-58
2021/05/13 07:35:19;;;;;;;7.82;2.60;;;;;;;;;;4981753;28;20105;-58
2021/05/13 07:37:46;;;;;;;3.85;2.40;;;;;;;;;;4981312;28;20049;-58
2021/05/13 07:40:12;;;;;;;8.43;2.70;;;;;;;;;;4981011;28;22007;-59
2021/05/13 07:42:38;;;;;;;3.80;2.58;;;;;;;;;;4988598;28;20061;-59
2021/05/13 07:45:06;;;;;;;6.38;2.35;;;;;;;;;;4993217;28;20080;-59
2021/05/13 07:47:37;;;;;;;5.47;2.55;;;;;;;;;;4977189;28;20034;-59
2021/05/13 07:50:04;;;;;;;5.40;2.22;;;;;;;;;;4985799;28;20030;-59
2021/05/13 07:52:30;;;;;;;7.57;2.63;;;;;;;;;;4979584;28;20034;-59
2021/05/13 07:54:56;;;;;;;3.70;2.63;;;;;;;;;;4979077;28;20046;-59
2021/05/13 07:57:22;;;;;;;8.07;2.58;;;;;;;;;;4963778;28;20030;-58
2021/05/13 07:59:49;;;;;;;9.30;2.83;;;;;;;;;;4987520;28;20081;-59
2021/05/13 08:02:15;;;;;;;6.63;1.90;;;;;;;;;;4989189;28;20034;-59
2021/05/13 08:04:41;;;;;;;3.75;1.60;;;;;;;;;;4981071;28;20053;-59
2021/05/13 08:07:07;;;;;;;5.55;1.70;;;;;;;;;;4992698;28;20404;-58
2021/05/13 08:09:33;;;;;;;3.38;1.42;;;;;;;;;;4991247;28;20022;-58
2021/05/13 08:11:59;;;;;;;2.53;1.27;;;;;;;;;;4992063;28;20101;-58
2021/05/13 08:14:26;;;;;;;4.55;1.40;;;;;;;;;;4993094;28;20022;-57
2021/05/13 08:16:52;;;;;;;6.22;1.50;;;;;;;;;;4991006;28;20041;-59
2021/05/13 08:19:18;;;;;;;4.65;1.80;;;;;;;;;;4992312;28;20035;-59
2021/05/13 08:21:44;;;;;;;4.38;1.65;;;;;;;;;;4992287;28;20038;-58
2021/05/13 08:24:10;;;;;;;3.97;1.50;;;;;;;;;;4992052;28;20070;-59
2021/05/13 08:26:36;;;;;;;5.88;1.45;;;;;;;;;;4992944;28;20123;-57
2021/05/13 08:29:03;;;;;;;3.88;1.15;;;;;;;;;;4992974;28;20030;-59
2021/05/13 08:31:29;;;;;;;7.95;1.88;;;;;;;;;;4992777;28;20359;-58
2021/05/13 08:33:55;;;;;;;4.97;1.67;;;;;;;;;;4992161;28;20023;-58
2021/05/13 08:36:46;;;;;;;3.72;1.77;;;;;;;;;;4992735;28;20029;-58
2021/05/13 08:39:14;;;;;;;5.45;1.63;;;;;;;;;;4990968;28;20374;-59
2021/05/13 08:41:41;;;;;;;3.08;1.55;;;;;;;;;;4989920;28;20053;-58
2021/05/13 08:44:08;;;;;;;3.00;1.20;;;;;;;;;;4992186;28;20022;-57
2021/05/13 08:46:36;;;;;;;3.35;1.33;;;;;;;;;;4992001;28;20034;-57
2021/05/13 08:49:03;;;;;;;5.97;2.17;;;;;;;;;;4992664;28;20030;-58
2021/05/13 08:51:29;;;;;;;3.30;1.40;;;;;;;;;;4990653;28;20034;-59
2021/05/13 08:53:56;;;;;;;4.47;1.70;;;;;;;;;;4991353;28;20081;-58
2021/05/13 08:56:23;;;;;;;2.40;1.50;;;;;;;;;;4991963;28;20022;-59
2021/05/13 08:58:49;;;;;;;4.25;1.40;;;;;;;;;;4987947;28;20200;-59
2021/05/13 09:01:16;;;;;;;4.97;1.35;;;;;;;;;;4990708;28;20023;-58
2021/05/13 09:03:44;;;;;;;2.78;1.10;;;;;;;;;;4991830;28;20425;-59
2021/05/13 09:06:20;;;;;;;3.90;1.30;;;;;;;;;;4991671;28;20031;-58
2021/05/13 09:08:47;;;;;;;4.82;1.40;;;;;;;;;;4991016;28;20102;-59
2021/05/13 09:11:14;;;;;;;4.65;1.80;;;;;;;;;;4990201;28;20026;-58
2021/05/13 09:13:41;;;;;;;3.10;1.70;;;;;;;;;;4987994;28;20106;-59
2021/05/13 09:16:27;;;;;;;2.70;1.25;;;;;;;;;;4989554;28;20038;-59
2021/05/13 09:18:54;;;;;;;3.55;1.20;;;;;;;;;;4992410;28;20058;-59
2021/05/13 09:21:20;;;;;;;3.15;1.50;;;;;;;;;;4992125;28;20035;-58
2021/05/13 09:23:46;;;;;;;3.72;1.40;;;;;;;;;;4990089;28;20105;-58
2021/05/13 09:26:14;;;;;;;2.35;1.20;;;;;;;;;;4991875;28;20388;-58
2021/05/13 09:28:44;;;;;;;4.22;1.95;;;;;;;;;;4992246;28;20042;-57
2021/05/13 09:31:30;;;;;;;5.82;1.88;;;;;;;;;;4992057;28;20478;-58
2021/05/13 09:34:02;;;;;;;4.75;1.50;;;;;;;;;;4990666;28;20034;-58
2021/05/13 09:36:29;;;;;;;3.23;1.30;;;;;;;;;;4990936;28;20026;-58
2021/05/13 09:38:55;;;;;;;4.18;1.50;;;;;;;;;;4990680;28;20042;-58
2021/05/13 09:41:32;;;;;;;1.75;1.17;;;;;;;;;;4973805;28;20038;-59
2021/05/13 09:43:58;;;;;;;3.30;1.70;;;;;;;;;;4990135;28;20050;-58
2021/05/13 09:46:32;;;;;;;5.05;2.17;;;;;;;;;;4991415;28;20034;-57
2021/05/13 09:48:58;;;;;;;4.90;1.25;;;;;;;;;;4991220;28;20468;-57
2021/05/13 09:51:29;;;;;;;2.65;1.10;;;;;;;;;;4991865;28;20034;-57
2021/05/13 09:54:08;;;;;;;1.65;0.90;;;;;;;;;;4993507;28;20038;-58
2021/05/13 09:56:35;;;;;;;3.10;1.50;;;;;;;;;;4995242;28;20076;-58
2021/05/13 09:59:19;;;;;;;5.55;2.95;;;;;;;;;;4995648;28;20105;-57
2021/05/13 10:01:45;;;;;;;6.78;2.47;;;;;;;;;;4994972;28;20036;-58
2021/05/13 10:04:11;;;;;;;4.38;2.38;;;;;;;;;;4994960;28;20027;-58
2021/05/13 10:06:37;;;;;;;3.05;2.40;;;;;;;;;;4993091;28;20409;-59
2021/05/13 10:09:04;;;;;;;4.05;2.00;;;;;;;;;;4995217;28;20490;-59
2021/05/13 10:11:31;;;;;;;4.63;2.33;;;;;;;;;;4994650;28;20160;-58
2021/05/13 10:13:57;;;;;;;3.47;2.35;;;;;;;;;;4995021;28;20153;-58
2021/05/13 10:16:23;;;;;;;4.25;2.38;;;;;;;;;;4994334;28;20026;-58
2021/05/13 10:18:54;;;;;;;3.22;2.03;;;;;;;;;;4995194;28;20065;-59
2021/05/13 10:21:25;;;;;;;5.18;2.33;;;;;;;;;;4993199;28;20477;-57
2021/05/13 10:23:52;;;;;;;5.90;2.25;;;;;;;;;;4995126;28;20053;-59
2021/05/13 10:26:37;;;;;;;6.82;2.30;;;;;;;;;;4994092;28;20164;-58
2021/05/13 10:29:21;;;;;;;4.50;1.80;;;;;;;;;;4994522;28;20035;-57
2021/05/13 10:32:02;;;;;;;4.15;1.90;;;;;;;;;;4994145;28;20110;-58
2021/05/13 10:34:41;;;;;;;3.55;2.22;;;;;;;;;;4978788;28;20029;-59
2021/05/13 10:37:10;;;;;;;4.03;1.80;;;;;;;;;;4993452;28;20022;-58
2021/05/13 10:39:36;;;;;;;3.63;2.30;;;;;;;;;;4994837;28;20038;-58
2021/05/13 10:42:21;;;;;;;4.53;2.40;;;;;;;;;;4994149;28;20502;-58
2021/05/13 10:44:47;;;;;;;2.85;2.28;;;;;;;;;;4993025;28;20026;-59
2021/05/13 10:47:26;;;;;;;4.00;2.15;;;;;;;;;;4993830;28;20026;-59
2021/05/13 10:49:53;;;;;;;8.00;2.45;;;;;;;;;;4994413;28;20030;-58
2021/05/13 10:52:33;;;;;;;4.80;2.63;;;;;;;;;;4992689;28;20088;-59
2021/05/13 10:55:00;;;;;;;3.30;2.45;;;;;;;;;;4994291;28;20108;-58
2021/05/13 10:57:26;;;;;;;4.10;2.42;;;;;;;;;;4993441;28;20027;-58
2021/05/13 11:00:08;;;;;;;6.97;2.60;;;;;;;;;;4993317;28;20494;-58
2021/05/13 11:02:40;;;;;;;4.13;2.60;;;;;;;;;;4988943;28;20478;-59
2021/05/13 11:05:25;;;;;;;6.60;3.00;;;;;;;;;;4986186;28;20043;-57
2021/05/13 11:07:51;;;;;;;3.15;2.08;;;;;;;;;;4992188;28;20026;-57
2021/05/13 11:10:17;;;;;;;6.18;2.35;;;;;;;;;;4994040;28;20033;-57
2021/05/13 11:12:44;;;;;;;5.97;2.50;;;;;;;;;;4994308;28;20490;-58
2021/05/13 11:17:52;;;;;;;6.13;2.63;;;;;;;;;;4991785;28;20110;-58
2021/05/13 11:20:19;;;;;;;5.72;2.53;;;;;;;;;;4987776;28;20049;-59
2021/05/13 11:22:56;;;;;;;5.20;2.25;;;;;;;;;;4992878;28;20133;-58
2021/05/13 11:25:22;;;;;;;4.43;2.85;;;;;;;;;;4994331;28;20073;-58
2021/05/13 11:27:48;;;;;;;4.70;2.20;;;;;;;;;;4993541;28;20018;-58
2021/05/13 11:30:15;;;;;;;3.47;2.22;;;;;;;;;;4994195;28;20030;-58
2021/05/13 11:32:41;;;;;;;4.93;2.00;;;;;;;;;;4994102;28;20124;-58
2021/05/13 11:35:08;;;;;;;9.85;2.13;;;;;;;;;;4994099;28;20528;-58
2021/05/13 11:37:39;;;;;;;3.70;1.67;;;;;;;;;;4992804;28;20026;-58
2021/05/13 11:40:22;;;;;;;6.88;2.17;;;;;;;;;;4994103;28;20027;-58
2021/05/13 11:42:48;;;;;;;3.40;1.80;;;;;;;;;;4993269;28;20470;-59
2021/05/13 11:45:16;;;;;;;3.55;1.60;;;;;;;;;;4994027;28;20022;-58
2021/05/13 11:47:42;;;;;;;4.82;2.25;;;;;;;;;;4992891;28;20110;-58
2021/05/13 11:50:09;;;;;;;5.70;2.13;;;;;;;;;;4993003;28;20460;-57
2021/05/13 11:52:35;;;;;;;5.03;2.92;;;;;;;;;;4991950;28;20480;-57
2021/05/13 11:55:02;;;;;;;4.50;2.15;;;;;;;;;;4983798;28;20030;-58
2021/05/13 11:57:28;;;;;;;5.28;2.58;;;;;;;;;;4993214;28;20018;-58
2021/05/13 11:59:54;;;;;;;4.50;2.40;;;;;;;;;;4990222;28;20046;-58
2021/05/13 12:02:20;;;;;;;3.42;1.73;;;;;;;;;;4993237;28;20026;-58
2021/05/13 12:04:46;;;;;;;7.60;2.15;;;;;;;;;;4991887;28;20107;-59
2021/05/13 12:07:15;;;;;;;4.32;1.60;;;;;;;;;;4992710;28;20026;-58
2021/05/13 12:09:49;;;;;;;5.13;1.92;;;;;;;;;;4988998;28;20018;-58
2021/05/13 12:12:22;;;;;;;3.75;2.35;;;;;;;;;;4993057;28;20466;-59
2021/05/13 12:14:48;;;;;;;4.75;2.00;;;;;;;;;;4993490;28;20117;-59
2021/05/13 12:17:14;;;;;;;3.50;2.00;;;;;;;;;;4992726;28;20029;-58
2021/05/13 12:19:43;;;;;;;4.65;1.88;;;;;;;;;;4992127;28;20126;-59
2021/05/13 12:22:10;;;;;;;4.60;2.45;;;;;;;;;;4991921;28;20026;-58
2021/05/13 12:24:45;;;;;;;3.60;1.80;;;;;;;;;;4992837;28;20477;-57
2021/05/13 12:27:15;;;;;;;6.85;2.38;;;;;;;;;;4991088;28;20196;-58
2021/05/13 12:29:42;;;;;;;4.93;1.98;;;;;;;;;;4992031;28;20026;-58
2021/05/13 12:32:08;;;;;;;4.10;1.80;;;;;;;;;;4992548;28;20038;-59
2021/05/13 12:34:34;;;;;;;5.35;2.90;;;;;;;;;;4975365;28;20125;-59
2021/05/13 12:37:01;;;;;;;2.70;1.95;;;;;;;;;;4979346;28;20034;-58
2021/05/13 12:39:31;;;;;;;6.75;2.17;;;;;;;;;;4992267;28;20513;-57
2021/05/13 12:41:58;;;;;;;3.90;1.90;;;;;;;;;;4992007;28;20054;-58
2021/05/13 12:44:28;;;;;;;3.70;1.80;;;;;;;;;;4991524;28;20030;-58
2021/05/13 12:46:54;;;;;;;5.97;2.08;;;;;;;;;;4991673;28;20031;-58
2021/05/13 12:49:25;;;;;;;2.80;2.50;;;;;;;;;;4990887;28;20402;-59
2021/05/13 12:52:00;;;;;;;6.82;1.80;;;;;;;;;;4991032;28;20474;-58
2021/05/13 12:54:26;;;;;;;3.47;1.75;;;;;;;;;;4989168;28;20034;-58
2021/05/13 12:56:53;;;;;;;3.65;1.88;;;;;;;;;;4992234;28;20022;-58
2021/05/13 12:59:19;;;;;;;3.83;1.80;;;;;;;;;;4992230;28;20041;-58
2021/05/13 13:02:05;;;;;;;3.80;1.95;;;;;;;;;;4991417;28;20109;-58
2021/05/13 13:04:53;;;;;;;4.65;1.90;;;;;;;;;;4991065;28;20485;-58
2021/05/13 13:07:21;;;;;;;4.55;1.58;;;;;;;;;;4990235;28;20038;-58
2021/05/13 13:09:47;;;;;;;3.17;1.38;;;;;;;;;;4991431;28;20045;-58
2021/05/13 13:12:17;;;;;;;3.67;1.30;;;;;;;;;;4992029;28;20149;-58
2021/05/13 13:14:46;;;;;;;2.53;1.40;;;;;;;;;;4990675;28;20022;-59
2021/05/13 13:17:19;;;;;;;6.15;1.40;;;;;;;;;;4992230;28;20485;-58
2021/05/13 13:20:26;;;;;;;8.10;1.85;;;;;;;;;;4991997;28;20047;-58
2021/05/13 13:22:53;;;;;;;5.70;1.80;;;;;;;;;;4923650;29;20032;-59
2021/05/13 13:25:19;;;;;;;7.97;1.85;;;;;;;;;;4932286;29;20063;-58
2021/05/13 13:27:45;;;;;;;3.17;1.60;;;;;;;;;;4931053;29;20474;-59
2021/05/13 13:30:16;;;;;;;4.07;1.42;;;;;;;;;;4906941;29;20036;-58
2021/05/13 13:32:43;;;;;;;3.50;1.77;;;;;;;;;;4918756;29;20032;-59
2021/05/13 13:35:12;;;;;;;3.85;1.77;;;;;;;;;;4917229;29;20028;-58
2021/05/13 13:37:38;;;;;;;4.78;1.70;;;;;;;;;;4917143;29;20453;-58
2021/05/13 13:40:05;;;;;;;3.88;1.60;;;;;;;;;;4923909;29;20051;-58
2021/05/13 13:42:32;;;;;;;4.63;1.65;;;;;;;;;;4924869;29;20172;-59
2021/05/13 13:44:58;;;;;;;1.92;1.30;;;;;;;;;;4916777;29;20138;-58
2021/05/13 13:47:25;;;;;;;1.85;1.20;;;;;;;;;;4911969;29;20051;-58
2021/05/13 13:49:52;;;;;;;3.40;1.35;;;;;;;;;;4917227;29;20078;-58
2021/05/13 13:52:18;;;;;;;4.55;1.65;;;;;;;;;;4932852;29;20036;-58
2021/05/13 13:54:45;;;;;;;3.03;1.50;;;;;;;;;;4922643;29;20503;-58
2021/05/13 13:57:11;;;;;;;4.40;1.40;;;;;;;;;;4963913;28;20038;-57
2021/05/13 13:59:37;;;;;;;1.25;1.00;;;;;;;;;;4993331;28;20342;-58
2021/05/13 14:02:03;;;;;;;2.45;1.15;;;;;;;;;;4994510;28;20132;-57
2021/05/13 14:04:29;;;;;;;2.72;1.15;;;;;;;;;;4974424;28;20027;-58
2021/05/13 14:06:56;;;;;;;3.67;1.30;;;;;;;;;;4987899;28;20501;-58
2021/05/13 14:09:22;;;;;;;2.55;1.27;;;;;;;;;;4995223;28;20124;-59
2021/05/13 14:11:49;;;;;;;3.13;1.40;;;;;;;;;;4995639;28;20029;-59
2021/05/13 14:14:15;;;;;;;2.83;1.23;;;;;;;;;;4994823;28;20030;-59
2021/05/13 14:16:41;;;;;;;2.58;1.10;;;;;;;;;;4993830;28;20034;-59
2021/05/13 14:19:08;;;;;;;3.22;1.10;;;;;;;;;;4994797;28;20030;-59
2021/05/13 14:21:34;;;;;;;2.88;1.20;;;;;;;;;;4994178;28;20057;-59
2021/05/13 14:24:00;;;;;;;2.83;1.20;;;;;;;;;;4994494;28;20019;-58
2021/05/13 14:26:26;;;;;;;2.03;1.25;;;;;;;;;;4991460;28;20468;-57
2021/05/13 14:28:52;;;;;;;2.33;1.30;;;;;;;;;;4994740;28;20034;-58
2021/05/13 14:31:19;;;;;;;2.80;1.30;;;;;;;;;;4982037;28;20058;-58
2021/05/13 14:33:45;;;;;;;1.67;1.00;;;;;;;;;;4987057;28;20375;-58
2021/05/13 14:36:11;;;;;;;1.40;1.00;;;;;;;;;;4994858;28;20022;-57
2021/05/13 14:38:39;;;;;;;2.13;1.40;;;;;;;;;;4992974;28;20035;-58
2021/05/13 14:41:05;;;;;;;1.65;1.00;;;;;;;;;;4993012;28;20486;-58
2021/05/13 14:43:31;;;;;;;1.80;1.20;;;;;;;;;;4994002;28;20051;-58
2021/05/13 14:45:57;;;;;;;3.60;0.90;;;;;;;;;;4993805;28;20259;-58
2021/05/13 14:48:25;;;;;;;1.75;1.00;;;;;;;;;;4994259;28;20104;-58
2021/05/13 14:50:51;;;;;;;1.27;1.17;;;;;;;;;;4993165;28;20517;-58
2021/05/13 14:53:18;;;;;;;2.90;1.20;;;;;;;;;;4994400;28;20026;-59
2021/05/13 14:55:44;;;;;;;3.95;1.13;;;;;;;;;;4993570;28;20061;-60
2021/05/13 14:58:10;;;;;;;3.20;1.00;;;;;;;;;;4993664;28;20033;-58
2021/05/13 15:00:40;;;;;;;2.22;1.00;;;;;;;;;;4976768;28;20104;-59